sensor_id;sensor_type;location;lat;lon;timestamp;pressure;altitude;pressure_sealevel;temperature;humidity
21096;BME280;10706;49.036;12.112;2023-01-26T00:01:14;98248.06;;;-0.85;98.55
21096;BME280;10706;49.036;12.112;2023-01-26T00:03:41;98240.88;;;-0.83;98.32
21096;BME280;10706;49.036;12.112;2023-01-26T00:06:09;98252.19;;;-0.65;97.05
21096;BME280;10706;49.036;12.112;2023-01-26T00:08:40;98239.47;;;-0.77;97.00
21096;BME280;10706;49.036;12.112;2023-01-26T00:11:09;98234.59;;;-0.90;97.63
21096;BME280;10706;49.036;12.112;2023-01-26T00:13:35;98236.84;;;-0.95;98.23
21096;BME280;10706;49.036;12.112;2023-01-26T00:16:02;98238.34;;;-0.93;98.11
21096;BME280;10706;49.036;12.112;2023-01-26T00:18:29;98241.13;;;-1.12;97.65
21096;BME280;10706;49.036;12.112;2023-01-26T00:21:00;98234.16;;;-1.04;98.58
21096;BME280;10706;49.036;12.112;2023-01-26T00:23:29;98224.66;;;-1.05;98.34
21096;BME280;10706;49.036;12.112;2023-01-26T00:25:55;98223.91;;;-0.97;98.24
21096;BME280;10706;49.036;12.112;2023-01-26T00:28:21;98224.44;;;-0.93;97.50
21096;BME280;10706;49.036;12.112;2023-01-26T00:30:47;98231.91;;;-0.99;98.33
21096;BME280;10706;49.036;12.112;2023-01-26T00:33:13;98227.88;;;-0.93;98.35
21096;BME280;10706;49.036;12.112;2023-01-26T00:35:38;98215.97;;;-0.87;97.87
21096;BME280;10706;49.036;12.112;2023-01-26T00:38:11;98214.06;;;-0.77;97.83
21096;BME280;10706;49.036;12.112;2023-01-26T00:40:38;98222.38;;;-0.64;97.46
21096;BME280;10706;49.036;12.112;2023-01-26T00:43:04;98221.25;;;-0.61;97.38
21096;BME280;10706;49.036;12.112;2023-01-26T00:45:29;98214.72;;;-0.57;97.00
21096;BME280;10706;49.036;12.112;2023-01-26T00:47:55;98206.81;;;-0.65;97.28
21096;BME280;10706;49.036;12.112;2023-01-26T00:50:21;98202.28;;;-0.55;97.21
21096;BME280;10706;49.036;12.112;2023-01-26T00:52:47;98196.59;;;-0.68;96.99
21096;BME280;10706;49.036;12.112;2023-01-26T00:55:12;98203.03;;;-0.63;97.83
21096;BME280;10706;49.036;12.112;2023-01-26T00:57:38;98205.41;;;-0.51;97.35
21096;BME280;10706;49.036;12.112;2023-01-26T01:00:05;98201.16;;;-0.52;97.56
21096;BME280;10706;49.036;12.112;2023-01-26T01:02:32;98202.94;;;-0.53;95.86
21096;BME280;10706;49.036;12.112;2023-01-26T01:04:57;98196.22;;;-0.73;96.42
21096;BME280;10706;49.036;12.112;2023-01-26T01:07:23;98196.31;;;-0.65;96.37
21096;BME280;10706;49.036;12.112;2023-01-26T01:09:49;98206.44;;;-0.70;95.97
21096;BME280;10706;49.036;12.112;2023-01-26T01:12:15;98202.22;;;-0.63;96.19
21096;BME280;10706;49.036;12.112;2023-01-26T01:14:40;98197.63;;;-0.43;94.55
21096;BME280;10706;49.036;12.112;2023-01-26T01:17:06;98194.41;;;-0.55;95.04
21096;BME280;10706;49.036;12.112;2023-01-26T01:19:32;98188.38;;;-0.73;95.45
21096;BME280;10706;49.036;12.112;2023-01-26T01:21:57;98187.78;;;-0.85;96.20
21096;BME280;10706;49.036;12.112;2023-01-26T01:24:24;98181.22;;;-0.89;96.38
21096;BME280;10706;49.036;12.112;2023-01-26T01:26:49;98188.84;;;-0.96;97.33
21096;BME280;10706;49.036;12.112;2023-01-26T01:29:15;98184.03;;;-0.83;96.96
21096;BME280;10706;49.036;12.112;2023-01-26T01:31:41;98185.97;;;-0.85;97.02
21096;BME280;10706;49.036;12.112;2023-01-26T01:34:07;98192.31;;;-0.95;97.19
21096;BME280;10706;49.036;12.112;2023-01-26T01:36:33;98188.16;;;-0.98;96.29
21096;BME280;10706;49.036;12.112;2023-01-26T01:38:59;98183.81;;;-1.07;97.57
21096;BME280;10706;49.036;12.112;2023-01-26T01:41:25;98188.72;;;-1.12;97.34
21096;BME280;10706;49.036;12.112;2023-01-26T01:44:20;98180.38;;;-1.08;97.97
21096;BME280;10706;49.036;12.112;2023-01-26T01:47:14;98178.69;;;-0.99;97.37
21096;BME280;10706;49.036;12.112;2023-01-26T01:49:48;98176.41;;;-0.94;97.95
21096;BME280;10706;49.036;12.112;2023-01-26T01:52:24;98170.50;;;-0.78;96.62
21096;BME280;10706;49.036;12.112;2023-01-26T01:55:13;98167.34;;;-0.82;96.32
21096;BME280;10706;49.036;12.112;2023-01-26T01:57:44;98163.38;;;-0.86;97.00
21096;BME280;10706;49.036;12.112;2023-01-26T02:00:16;98161.97;;;-0.98;97.26
21096;BME280;10706;49.036;12.112;2023-01-26T02:02:45;98167.88;;;-0.96;97.44
21096;BME280;10706;49.036;12.112;2023-01-26T02:08:19;98157.16;;;-0.85;96.86
21096;BME280;10706;49.036;12.112;2023-01-26T02:10:48;98155.38;;;-0.84;96.31
21096;BME280;10706;49.036;12.112;2023-01-26T02:13:17;98158.00;;;-0.84;96.98
21096;BME280;10706;49.036;12.112;2023-01-26T02:15:44;98147.66;;;-0.86;96.75
21096;BME280;10706;49.036;12.112;2023-01-26T02:18:10;98142.63;;;-0.79;96.05
21096;BME280;10706;49.036;12.112;2023-01-26T02:26:28;98127.41;;;-0.75;96.81
21096;BME280;10706;49.036;12.112;2023-01-26T02:28:55;98132.66;;;-0.75;96.86
21096;BME280;10706;49.036;12.112;2023-01-26T02:31:22;98125.44;;;-0.73;96.92
21096;BME280;10706;49.036;12.112;2023-01-26T02:33:49;98122.81;;;-0.73;96.01
21096;BME280;10706;49.036;12.112;2023-01-26T02:36:24;98121.25;;;-0.66;95.57
21096;BME280;10706;49.036;12.112;2023-01-26T02:39:14;98112.09;;;-0.62;94.85
21096;BME280;10706;49.036;12.112;2023-01-26T02:41:42;98116.72;;;-0.82;94.45
21096;BME280;10706;49.036;12.112;2023-01-26T02:44:28;98110.28;;;-0.88;95.96
21096;BME280;10706;49.036;12.112;2023-01-26T02:46:54;98115.38;;;-0.86;96.16
21096;BME280;10706;49.036;12.112;2023-01-26T02:49:20;98104.72;;;-0.85;96.71
21096;BME280;10706;49.036;12.112;2023-01-26T02:52:06;98109.97;;;-0.85;96.13
21096;BME280;10706;49.036;12.112;2023-01-26T02:54:32;98113.47;;;-0.76;96.78
21096;BME280;10706;49.036;12.112;2023-01-26T02:57:16;98100.13;;;-0.65;96.35
21096;BME280;10706;49.036;12.112;2023-01-26T02:59:42;98098.38;;;-0.56;95.84
21096;BME280;10706;49.036;12.112;2023-01-26T03:02:08;98100.41;;;-0.42;95.63
21096;BME280;10706;49.036;12.112;2023-01-26T03:04:34;98096.78;;;-0.49;94.54
21096;BME280;10706;49.036;12.112;2023-01-26T03:07:00;98098.31;;;-0.64;95.13
21096;BME280;10706;49.036;12.112;2023-01-26T03:09:26;98099.41;;;-0.75;95.91
21096;BME280;10706;49.036;12.112;2023-01-26T03:11:52;98094.25;;;-0.85;96.46
21096;BME280;10706;49.036;12.112;2023-01-26T03:14:18;98095.44;;;-0.79;96.00
21096;BME280;10706;49.036;12.112;2023-01-26T03:16:43;98097.19;;;-0.88;96.16
21096;BME280;10706;49.036;12.112;2023-01-26T03:19:15;98101.00;;;-0.82;96.30
21096;BME280;10706;49.036;12.112;2023-01-26T03:21:59;98102.47;;;-0.80;96.23
21096;BME280;10706;49.036;12.112;2023-01-26T03:24:44;98100.47;;;-0.86;95.96
21096;BME280;10706;49.036;12.112;2023-01-26T03:27:40;98092.81;;;-0.79;96.28
21096;BME280;10706;49.036;12.112;2023-01-26T03:30:07;98094.66;;;-0.71;94.81
21096;BME280;10706;49.036;12.112;2023-01-26T03:32:33;98099.47;;;-0.85;95.28
21096;BME280;10706;49.036;12.112;2023-01-26T03:34:58;98100.00;;;-0.81;95.21
21096;BME280;10706;49.036;12.112;2023-01-26T03:37:24;98086.44;;;-0.76;95.12
21096;BME280;10706;49.036;12.112;2023-01-26T03:39:50;98088.75;;;-0.73;95.56
21096;BME280;10706;49.036;12.112;2023-01-26T03:42:36;98081.88;;;-0.74;95.71
21096;BME280;10706;49.036;12.112;2023-01-26T03:45:21;98082.66;;;-0.82;93.86
21096;BME280;10706;49.036;12.112;2023-01-26T03:48:09;98089.19;;;-0.86;94.90
21096;BME280;10706;49.036;12.112;2023-01-26T03:50:53;98085.03;;;-0.89;94.79
21096;BME280;10706;49.036;12.112;2023-01-26T03:53:37;98086.72;;;-0.88;95.35
21096;BME280;10706;49.036;12.112;2023-01-26T03:56:22;98082.44;;;-0.89;95.82
21096;BME280;10706;49.036;12.112;2023-01-26T03:58:59;98081.38;;;-0.96;95.73
21096;BME280;10706;49.036;12.112;2023-01-26T04:01:42;98088.44;;;-0.96;95.94
21096;BME280;10706;49.036;12.112;2023-01-26T04:04:27;98083.97;;;-0.78;95.27
21096;BME280;10706;49.036;12.112;2023-01-26T04:07:11;98082.66;;;-0.82;94.47
21096;BME280;10706;49.036;12.112;2023-01-26T04:09:55;98075.69;;;-0.91;95.08
21096;BME280;10706;49.036;12.112;2023-01-26T04:12:21;98087.63;;;-0.97;95.63
21096;BME280;10706;49.036;12.112;2023-01-26T04:14:47;98090.38;;;-0.99;96.10
21096;BME280;10706;49.036;12.112;2023-01-26T04:17:31;98086.63;;;-0.96;95.48
21096;BME280;10706;49.036;12.112;2023-01-26T04:20:15;98079.81;;;-0.89;95.44
21096;BME280;10706;49.036;12.112;2023-01-26T04:22:59;98085.53;;;-0.67;93.52
21096;BME280;10706;49.036;12.112;2023-01-26T04:25:25;98080.56;;;-0.70;93.84
21096;BME280;10706;49.036;12.112;2023-01-26T04:27:51;98075.97;;;-0.76;94.04
21096;BME280;10706;49.036;12.112;2023-01-26T04:30:17;98072.19;;;-0.74;94.24
21096;BME280;10706;49.036;12.112;2023-01-26T04:32:44;98076.75;;;-0.84;94.30
21096;BME280;10706;49.036;12.112;2023-01-26T04:35:11;98073.19;;;-0.75;94.25
21096;BME280;10706;49.036;12.112;2023-01-26T04:37:37;98066.19;;;-0.66;93.38
21096;BME280;10706;49.036;12.112;2023-01-26T04:40:05;98062.75;;;-0.67;92.90
21096;BME280;10706;49.036;12.112;2023-01-26T04:42:31;98059.09;;;-0.74;92.84
21096;BME280;10706;49.036;12.112;2023-01-26T04:44:57;98070.97;;;-0.88;93.31
21096;BME280;10706;49.036;12.112;2023-01-26T04:47:22;98066.25;;;-0.84;93.81
21096;BME280;10706;49.036;12.112;2023-01-26T04:49:48;98062.00;;;-0.77;93.07
21096;BME280;10706;49.036;12.112;2023-01-26T04:52:14;98063.97;;;-0.79;93.55
21096;BME280;10706;49.036;12.112;2023-01-26T04:54:40;98058.38;;;-0.84;93.66
21096;BME280;10706;49.036;12.112;2023-01-26T04:57:07;98061.16;;;-0.86;93.58
21096;BME280;10706;49.036;12.112;2023-01-26T04:59:33;98056.84;;;-0.95;93.32
21096;BME280;10706;49.036;12.112;2023-01-26T05:01:59;98065.09;;;-1.08;93.35
21096;BME280;10706;49.036;12.112;2023-01-26T05:04:25;98062.94;;;-1.12;93.39
21096;BME280;10706;49.036;12.112;2023-01-26T05:06:50;98063.25;;;-1.15;93.82
21096;BME280;10706;49.036;12.112;2023-01-26T05:09:16;98063.41;;;-1.17;94.34
21096;BME280;10706;49.036;12.112;2023-01-26T05:11:42;98062.09;;;-1.13;94.20
21096;BME280;10706;49.036;12.112;2023-01-26T05:14:08;98056.63;;;-1.02;94.64
21096;BME280;10706;49.036;12.112;2023-01-26T05:16:33;98067.44;;;-1.05;94.54
21096;BME280;10706;49.036;12.112;2023-01-26T05:18:59;98068.50;;;-1.15;93.54
21096;BME280;10706;49.036;12.112;2023-01-26T05:21:25;98072.91;;;-1.16;94.10
21096;BME280;10706;49.036;12.112;2023-01-26T05:23:52;98072.28;;;-1.10;94.58
21096;BME280;10706;49.036;12.112;2023-01-26T05:26:18;98067.06;;;-1.10;93.44
21096;BME280;10706;49.036;12.112;2023-01-26T05:28:44;98073.19;;;-1.01;93.67
21096;BME280;10706;49.036;12.112;2023-01-26T05:31:10;98076.41;;;-1.07;93.21
21096;BME280;10706;49.036;12.112;2023-01-26T05:33:36;98079.59;;;-1.22;93.71
21096;BME280;10706;49.036;12.112;2023-01-26T05:36:06;98077.50;;;-1.36;94.85
21096;BME280;10706;49.036;12.112;2023-01-26T05:38:33;98076.81;;;-1.20;94.93
21096;BME280;10706;49.036;12.112;2023-01-26T05:40:58;98078.28;;;-1.18;95.04
21096;BME280;10706;49.036;12.112;2023-01-26T05:43:24;98079.19;;;-1.09;94.93
21096;BME280;10706;49.036;12.112;2023-01-26T05:45:50;98064.91;;;-1.14;94.78
21096;BME280;10706;49.036;12.112;2023-01-26T05:48:16;98063.91;;;-1.13;95.19
21096;BME280;10706;49.036;12.112;2023-01-26T05:50:42;98063.09;;;-1.14;94.94
21096;BME280;10706;49.036;12.112;2023-01-26T05:53:08;98068.13;;;-1.21;94.76
21096;BME280;10706;49.036;12.112;2023-01-26T05:55:33;98065.06;;;-1.16;94.60
21096;BME280;10706;49.036;12.112;2023-01-26T05:57:59;98066.91;;;-1.08;94.82
21096;BME280;10706;49.036;12.112;2023-01-26T06:00:25;98064.59;;;-1.11;94.87
21096;BME280;10706;49.036;12.112;2023-01-26T06:02:51;98068.91;;;-1.02;94.00
21096;BME280;10706;49.036;12.112;2023-01-26T06:05:17;98060.91;;;-1.01;93.93
21096;BME280;10706;49.036;12.112;2023-01-26T06:07:43;98071.91;;;-0.97;94.08
21096;BME280;10706;49.036;12.112;2023-01-26T06:10:09;98068.13;;;-0.94;93.81
21096;BME280;10706;49.036;12.112;2023-01-26T06:12:35;98071.09;;;-0.98;93.28
21096;BME280;10706;49.036;12.112;2023-01-26T06:15:04;98075.28;;;-1.05;93.93
21096;BME280;10706;49.036;12.112;2023-01-26T06:17:30;98065.91;;;-0.81;92.71
21096;BME280;10706;49.036;12.112;2023-01-26T06:19:56;98074.16;;;-0.76;91.28
21096;BME280;10706;49.036;12.112;2023-01-26T06:22:23;98068.09;;;-0.76;91.47
21096;BME280;10706;49.036;12.112;2023-01-26T06:24:48;98077.13;;;-0.97;92.42
21096;BME280;10706;49.036;12.112;2023-01-26T06:27:16;98078.31;;;-0.91;93.10
21096;BME280;10706;49.036;12.112;2023-01-26T06:29:43;98074.38;;;-0.95;92.70
21096;BME280;10706;49.036;12.112;2023-01-26T06:32:12;98072.59;;;-0.87;93.07
21096;BME280;10706;49.036;12.112;2023-01-26T06:34:38;98074.94;;;-0.84;92.33
21096;BME280;10706;49.036;12.112;2023-01-26T06:37:06;98069.94;;;-0.95;91.94
21096;BME280;10706;49.036;12.112;2023-01-26T06:39:32;98075.91;;;-0.85;92.85
21096;BME280;10706;49.036;12.112;2023-01-26T06:41:58;98061.53;;;-0.81;91.90
21096;BME280;10706;49.036;12.112;2023-01-26T06:44:24;98069.06;;;-1.04;92.31
21096;BME280;10706;49.036;12.112;2023-01-26T06:46:49;98049.91;;;-1.04;92.73
21096;BME280;10706;49.036;12.112;2023-01-26T06:49:15;98054.84;;;-1.01;93.07
21096;BME280;10706;49.036;12.112;2023-01-26T06:52:03;98051.69;;;-1.05;92.76
21096;BME280;10706;49.036;12.112;2023-01-26T06:54:29;98057.59;;;-1.03;92.52
21096;BME280;10706;49.036;12.112;2023-01-26T06:56:58;98056.28;;;-0.81;92.30
21096;BME280;10706;49.036;12.112;2023-01-26T06:59:23;98048.75;;;-0.75;92.73
21096;BME280;10706;49.036;12.112;2023-01-26T07:01:50;98056.38;;;-0.90;91.58
21096;BME280;10706;49.036;12.112;2023-01-26T07:04:16;98058.38;;;-0.84;91.75
21096;BME280;10706;49.036;12.112;2023-01-26T07:06:42;98052.22;;;-1.01;91.81
21096;BME280;10706;49.036;12.112;2023-01-26T07:09:09;98057.25;;;-0.82;90.96
21096;BME280;10706;49.036;12.112;2023-01-26T07:11:35;98060.88;;;-1.27;92.32
21096;BME280;10706;49.036;12.112;2023-01-26T07:14:01;98051.81;;;-1.32;92.22
21096;BME280;10706;49.036;12.112;2023-01-26T07:16:27;98055.78;;;-1.28;92.95
21096;BME280;10706;49.036;12.112;2023-01-26T07:18:53;98057.97;;;-1.24;92.82
21096;BME280;10706;49.036;12.112;2023-01-26T07:21:21;98063.72;;;-1.20;92.15
21096;BME280;10706;49.036;12.112;2023-01-26T07:23:48;98056.16;;;-1.23;91.84
21096;BME280;10706;49.036;12.112;2023-01-26T07:26:16;98051.56;;;-1.21;92.32
21096;BME280;10706;49.036;12.112;2023-01-26T07:28:41;98043.34;;;-1.26;92.27
21096;BME280;10706;49.036;12.112;2023-01-26T07:31:09;98044.63;;;-1.30;93.18
21096;BME280;10706;49.036;12.112;2023-01-26T07:33:35;98048.72;;;-1.28;93.15
21096;BME280;10706;49.036;12.112;2023-01-26T07:36:01;98047.91;;;-1.28;93.25
21096;BME280;10706;49.036;12.112;2023-01-26T07:38:28;98047.69;;;-1.17;93.31
21096;BME280;10706;49.036;12.112;2023-01-26T07:40:54;98048.81;;;-1.20;92.34
21096;BME280;10706;49.036;12.112;2023-01-26T07:43:20;98045.28;;;-1.10;92.91
21096;BME280;10706;49.036;12.112;2023-01-26T07:45:53;98045.13;;;-1.09;92.30
21096;BME280;10706;49.036;12.112;2023-01-26T07:48:21;98055.69;;;-1.19;91.92
21096;BME280;10706;49.036;12.112;2023-01-26T07:50:47;98048.91;;;-1.29;92.88
21096;BME280;10706;49.036;12.112;2023-01-26T07:53:15;98049.56;;;-1.27;94.49
21096;BME280;10706;49.036;12.112;2023-01-26T07:55:44;98055.09;;;-1.30;93.20
21096;BME280;10706;49.036;12.112;2023-01-26T07:58:11;98055.19;;;-1.40;92.57
21096;BME280;10706;49.036;12.112;2023-01-26T08:00:38;98054.88;;;-1.37;93.64
21096;BME280;10706;49.036;12.112;2023-01-26T08:03:04;98049.25;;;-1.24;92.98
21096;BME280;10706;49.036;12.112;2023-01-26T08:05:31;98050.19;;;-1.07;92.82
21096;BME280;10706;49.036;12.112;2023-01-26T08:08:00;98046.72;;;-1.16;92.18
21096;BME280;10706;49.036;12.112;2023-01-26T08:10:27;98045.41;;;-1.38;92.55
21096;BME280;10706;49.036;12.112;2023-01-26T08:12:58;98049.16;;;-1.41;93.19
21096;BME280;10706;49.036;12.112;2023-01-26T08:15:25;98048.31;;;-1.41;93.79
21096;BME280;10706;49.036;12.112;2023-01-26T08:17:52;98047.09;;;-1.29;93.63
21096;BME280;10706;49.036;12.112;2023-01-26T08:20:18;98049.63;;;-1.37;93.75
21096;BME280;10706;49.036;12.112;2023-01-26T08:22:44;98047.63;;;-1.43;93.12
21096;BME280;10706;49.036;12.112;2023-01-26T08:25:10;98043.22;;;-1.43;93.75
21096;BME280;10706;49.036;12.112;2023-01-26T08:27:35;98050.53;;;-1.28;94.05
21096;BME280;10706;49.036;12.112;2023-01-26T08:30:01;98046.72;;;-1.34;93.19
21096;BME280;10706;49.036;12.112;2023-01-26T08:32:30;98047.41;;;-1.32;93.24
21096;BME280;10706;49.036;12.112;2023-01-26T08:34:56;98041.50;;;-1.34;92.64
21096;BME280;10706;49.036;12.112;2023-01-26T08:37:22;98047.72;;;-1.35;92.46
21096;BME280;10706;49.036;12.112;2023-01-26T08:39:48;98041.44;;;-1.42;92.98
21096;BME280;10706;49.036;12.112;2023-01-26T08:42:13;98043.44;;;-1.36;92.71
21096;BME280;10706;49.036;12.112;2023-01-26T08:44:39;98045.00;;;-1.43;92.21
21096;BME280;10706;49.036;12.112;2023-01-26T08:47:05;98039.41;;;-1.48;93.22
21096;BME280;10706;49.036;12.112;2023-01-26T08:49:31;98043.00;;;-1.49;93.14
21096;BME280;10706;49.036;12.112;2023-01-26T08:51:56;98043.97;;;-1.50;93.02
21096;BME280;10706;49.036;12.112;2023-01-26T08:54:22;98041.06;;;-1.47;93.33
21096;BME280;10706;49.036;12.112;2023-01-26T08:56:48;98042.34;;;-1.51;93.47
21096;BME280;10706;49.036;12.112;2023-01-26T08:59:14;98053.63;;;-1.51;93.45
21096;BME280;10706;49.036;12.112;2023-01-26T09:01:39;98050.78;;;-1.40;92.70
21096;BME280;10706;49.036;12.112;2023-01-26T09:04:05;98050.09;;;-1.24;93.09
21096;BME280;10706;49.036;12.112;2023-01-26T09:06:31;98043.63;;;-1.11;92.09
21096;BME280;10706;49.036;12.112;2023-01-26T09:08:58;98041.88;;;-1.03;91.55
21096;BME280;10706;49.036;12.112;2023-01-26T09:11:23;98047.81;;;-0.66;88.76
21096;BME280;10706;49.036;12.112;2023-01-26T09:13:52;98047.22;;;-0.60;88.41
21096;BME280;10706;49.036;12.112;2023-01-26T09:16:21;98049.50;;;-0.57;87.86
21096;BME280;10706;49.036;12.112;2023-01-26T09:18:52;98042.78;;;-0.60;88.94
21096;BME280;10706;49.036;12.112;2023-01-26T09:21:18;98037.13;;;-0.47;87.79
21096;BME280;10706;49.036;12.112;2023-01-26T09:23:44;98040.00;;;-0.58;88.28
21096;BME280;10706;49.036;12.112;2023-01-26T09:26:10;98038.34;;;-0.59;88.65
21096;BME280;10706;49.036;12.112;2023-01-26T09:28:36;98047.00;;;-0.67;89.28
21096;BME280;10706;49.036;12.112;2023-01-26T09:31:08;98045.09;;;-0.56;89.98
21096;BME280;10706;49.036;12.112;2023-01-26T09:33:35;98041.66;;;-0.57;90.02
21096;BME280;10706;49.036;12.112;2023-01-26T09:36:07;98038.66;;;-0.62;89.58
21096;BME280;10706;49.036;12.112;2023-01-26T09:38:33;98042.00;;;-0.52;89.71
21096;BME280;10706;49.036;12.112;2023-01-26T09:44:22;98038.22;;;-0.57;89.62
21096;BME280;10706;49.036;12.112;2023-01-26T09:47:23;98038.56;;;-0.52;88.48
21096;BME280;10706;49.036;12.112;2023-01-26T09:50:07;98038.59;;;-0.44;88.24
21096;BME280;10706;49.036;12.112;2023-01-26T09:53:06;98039.88;;;-0.48;89.62
21096;BME280;10706;49.036;12.112;2023-01-26T09:55:36;98033.22;;;-0.34;90.19
21096;BME280;10706;49.036;12.112;2023-01-26T09:58:30;98040.94;;;-0.33;89.83
21096;BME280;10706;49.036;12.112;2023-01-26T10:01:02;98034.53;;;-0.30;89.50
21096;BME280;10706;49.036;12.112;2023-01-26T10:03:40;98031.31;;;-0.16;88.24
21096;BME280;10706;49.036;12.112;2023-01-26T10:06:27;98031.69;;;-0.03;88.13
21096;BME280;10706;49.036;12.112;2023-01-26T10:08:58;98029.91;;;-0.45;88.50
21096;BME280;10706;49.036;12.112;2023-01-26T10:11:34;98024.16;;;-0.48;89.31
21096;BME280;10706;49.036;12.112;2023-01-26T10:14:18;98025.16;;;-0.41;89.95
21096;BME280;10706;49.036;12.112;2023-01-26T10:16:48;98029.28;;;-0.38;89.34
21096;BME280;10706;49.036;12.112;2023-01-26T10:19:46;98023.78;;;-0.53;89.37
21096;BME280;10706;49.036;12.112;2023-01-26T10:22:35;98017.59;;;-0.52;89.38
21096;BME280;10706;49.036;12.112;2023-01-26T10:25:16;98013.03;;;-0.42;89.01
21096;BME280;10706;49.036;12.112;2023-01-26T10:27:44;98014.53;;;-0.31;89.28
21096;BME280;10706;49.036;12.112;2023-01-26T10:30:18;98012.59;;;-0.21;89.36
21096;BME280;10706;49.036;12.112;2023-01-26T10:32:50;98007.84;;;-0.17;89.63
21096;BME280;10706;49.036;12.112;2023-01-26T10:35:24;98013.59;;;-0.14;89.04
21096;BME280;10706;49.036;12.112;2023-01-26T10:37:50;98012.09;;;-0.25;88.89
21096;BME280;10706;49.036;12.112;2023-01-26T10:40:18;98015.72;;;-0.17;89.25
21096;BME280;10706;49.036;12.112;2023-01-26T10:42:57;98017.03;;;-0.22;89.78
21096;BME280;10706;49.036;12.112;2023-01-26T10:45:30;98012.44;;;-0.11;90.19
21096;BME280;10706;49.036;12.112;2023-01-26T10:48:19;98012.50;;;-0.03;89.46
21096;BME280;10706;49.036;12.112;2023-01-26T10:50:48;98006.09;;;-0.01;89.22
21096;BME280;10706;49.036;12.112;2023-01-26T10:53:27;98002.13;;;-0.13;89.85
21096;BME280;10706;49.036;12.112;2023-01-26T10:56:10;98003.91;;;-0.22;90.51
21096;BME280;10706;49.036;12.112;2023-01-26T11:01:09;98007.19;;;-0.20;90.36
21096;BME280;10706;49.036;12.112;2023-01-26T11:03:37;98003.25;;;-0.15;89.60
21096;BME280;10706;49.036;12.112;2023-01-26T11:06:16;98001.44;;;-0.23;89.40
21096;BME280;10706;49.036;12.112;2023-01-26T11:08:43;98000.50;;;-0.06;89.44
21096;BME280;10706;49.036;12.112;2023-01-26T11:11:29;97998.22;;;-0.09;89.00
21096;BME280;10706;49.036;12.112;2023-01-26T11:14:17;97992.97;;;-0.09;90.00
21096;BME280;10706;49.036;12.112;2023-01-26T11:16:59;97992.97;;;-0.09;88.89
21096;BME280;10706;49.036;12.112;2023-01-26T11:23:05;97988.97;;;-0.37;89.58
21096;BME280;10706;49.036;12.112;2023-01-26T11:26:12;97987.22;;;-0.55;90.41
21096;BME280;10706;49.036;12.112;2023-01-26T11:38:39;97968.16;;;-0.23;90.12
21096;BME280;10706;49.036;12.112;2023-01-26T11:41:24;97968.50;;;-0.17;90.57
21096;BME280;10706;49.036;12.112;2023-01-26T11:47:12;97963.31;;;0.15;90.06
21096;BME280;10706;49.036;12.112;2023-01-26T11:58:38;97950.66;;;0.11;87.42
21096;BME280;10706;49.036;12.112;2023-01-26T12:01:35;97947.53;;;-0.09;87.83
21096;BME280;10706;49.036;12.112;2023-01-26T12:04:03;97949.84;;;0.10;87.18
21096;BME280;10706;49.036;12.112;2023-01-26T12:06:44;97951.16;;;0.14;86.67
21096;BME280;10706;49.036;12.112;2023-01-26T12:09:31;97949.00;;;0.26;87.37
21096;BME280;10706;49.036;12.112;2023-01-26T12:12:08;97954.25;;;0.18;86.70
21096;BME280;10706;49.036;12.112;2023-01-26T12:23:12;97939.66;;;-0.09;87.64
21096;BME280;10706;49.036;12.112;2023-01-26T12:25:49;97941.16;;;0.10;88.35
21096;BME280;10706;49.036;12.112;2023-01-26T12:28:23;97933.59;;;-0.02;87.72
21096;BME280;10706;49.036;12.112;2023-01-26T12:31:13;97935.03;;;-0.15;88.24
21096;BME280;10706;49.036;12.112;2023-01-26T12:33:40;97928.97;;;-0.08;87.44
21096;BME280;10706;49.036;12.112;2023-01-26T12:36:14;97932.78;;;0.06;86.43
21096;BME280;10706;49.036;12.112;2023-01-26T12:44:56;97914.22;;;0.24;85.09
21096;BME280;10706;49.036;12.112;2023-01-26T12:47:53;97914.38;;;-0.10;83.68
21096;BME280;10706;49.036;12.112;2023-01-26T12:50:28;97906.69;;;-0.04;84.46
21096;BME280;10706;49.036;12.112;2023-01-26T12:53:21;97906.84;;;0.03;85.67
21096;BME280;10706;49.036;12.112;2023-01-26T12:58:42;97905.38;;;0.25;85.15
21096;BME280;10706;49.036;12.112;2023-01-26T13:01:13;97903.88;;;0.14;85.11
21096;BME280;10706;49.036;12.112;2023-01-26T13:03:55;97897.16;;;0.20;84.99
21096;BME280;10706;49.036;12.112;2023-01-26T13:06:24;97899.00;;;0.11;85.04
21096;BME280;10706;49.036;12.112;2023-01-26T13:11:55;97887.47;;;0.37;84.30
21096;BME280;10706;49.036;12.112;2023-01-26T13:14:37;97892.53;;;0.47;83.69
21096;BME280;10706;49.036;12.112;2023-01-26T13:19:53;97889.94;;;0.30;83.71
21096;BME280;10706;49.036;12.112;2023-01-26T13:24:56;97895.69;;;0.09;83.50
21096;BME280;10706;49.036;12.112;2023-01-26T13:33:22;97893.88;;;0.02;83.06
21096;BME280;10706;49.036;12.112;2023-01-26T13:35:50;97889.47;;;0.10;83.01
21096;BME280;10706;49.036;12.112;2023-01-26T13:38:43;97897.50;;;0.17;83.09
21096;BME280;10706;49.036;12.112;2023-01-26T13:41:19;97883.38;;;0.02;84.46
21096;BME280;10706;49.036;12.112;2023-01-26T13:44:09;97894.53;;;0.28;83.94
21096;BME280;10706;49.036;12.112;2023-01-26T13:46:53;97892.41;;;0.15;82.79
21096;BME280;10706;49.036;12.112;2023-01-26T13:49:36;97895.53;;;0.11;83.06
21096;BME280;10706;49.036;12.112;2023-01-26T13:52:25;97896.66;;;-0.08;82.89
21096;BME280;10706;49.036;12.112;2023-01-26T13:54:55;97897.16;;;0.20;82.92
21096;BME280;10706;49.036;12.112;2023-01-26T13:57:27;97893.06;;;0.34;81.43
21096;BME280;10706;49.036;12.112;2023-01-26T13:59:57;97888.59;;;0.43;82.64
21096;BME280;10706;49.036;12.112;2023-01-26T14:02:32;97881.38;;;0.36;82.67
21096;BME280;10706;49.036;12.112;2023-01-26T14:05:00;97885.00;;;0.35;82.58
21096;BME280;10706;49.036;12.112;2023-01-26T14:07:40;97886.66;;;0.36;81.73
21096;BME280;10706;49.036;12.112;2023-01-26T14:10:07;97879.63;;;0.04;84.01
21096;BME280;10706;49.036;12.112;2023-01-26T14:12:42;97876.50;;;0.09;83.75
21096;BME280;10706;49.036;12.112;2023-01-26T14:15:30;97881.91;;;-0.01;83.98
21096;BME280;10706;49.036;12.112;2023-01-26T14:18:04;97880.75;;;0.02;84.47
21096;BME280;10706;49.036;12.112;2023-01-26T14:20:34;97886.50;;;-0.03;84.30
21096;BME280;10706;49.036;12.112;2023-01-26T14:23:12;97880.09;;;-0.17;84.66